Blountsville, Alabama
Current Conditions -  °F | °C
As of 4:55 PM on Friday 28 Nov 2014 (Local Time) from KCMD Reporting Station
Clear Clear  
Wind Chill: 41°   Ceiling: Unl
Heat Index: 44°   Visibility: 10mi
Dew Point: 21°   Wind: 5mph
Humidity: 41%   Direction: 180°S
Pressure: 30.27"   Gusts: NA
Location:  34.08°N, 86.59°W
Report Text: KCMD 282255Z AUTO 18004KT 10SM CLR 06/M06 A3027 RMK AO2 T00641060
Loading
Personal Weather Stations






























Interactive Weather Map New forecast layout! Learn more

10-Day Weather Forecast

Advertisements
Track Severe Weather on mobile